Time;durP1;ratioP1;P1;durP2;ratioP2;P2;SDS_P1;SDS_P2;PMS_P1;PMS_P2;Temp;Humidity;BMP_temperature;BMP_pressure;BME280_temperature;BME280_humidity;BME280_pressure;Samples;Min_cycle;Max_cycle;Signal;HPM_P1;HPM_P2
2021/08/01 00:00:07;;;;;;;17.30;6.32;;;;;;;-145.71;100.00;60690.53;5000048;28;20025;-83
2021/08/01 00:02:33;;;;;;;15.43;6.43;;;;;;;-145.71;100.00;60690.53;5015053;28;20026;-84
2021/08/01 00:04:58;;;;;;;10.57;5.55;;;;;;;-145.71;100.00;60690.53;5008908;28;20032;-83
2021/08/01 00:07:24;;;;;;;9.35;5.88;;;;;;;-145.71;100.00;60690.53;4999168;28;20397;-83
2021/08/01 00:09:49;;;;;;;9.02;5.15;;;;;;;-145.71;100.00;60690.53;5024752;28;20088;-84
2021/08/01 00:12:15;;;;;;;15.25;5.68;;;;;;;-145.71;100.00;60690.53;5012125;28;20143;-84
2021/08/01 00:14:41;;;;;;;11.60;5.72;;;;;;;-145.71;100.00;60690.53;5026694;28;20032;-84
2021/08/01 00:17:06;;;;;;;9.20;5.53;;;;;;;-145.71;100.00;60690.53;5015213;28;20033;-83
2021/08/01 00:19:32;;;;;;;9.88;5.00;;;;;;;-145.71;100.00;60690.53;5026634;28;20038;-83
2021/08/01 00:21:57;;;;;;;9.05;5.68;;;;;;;-145.71;100.00;60690.53;5020774;28;20029;-84
2021/08/01 00:24:23;;;;;;;16.33;6.15;;;;;;;-145.71;100.00;60690.53;5020323;28;20079;-83
2021/08/01 00:26:48;;;;;;;9.73;5.78;;;;;;;-145.71;100.00;60690.53;5028039;28;20116;-84
2021/08/01 00:29:14;;;;;;;13.27;5.43;;;;;;;-145.71;100.00;60690.53;5013711;28;20033;-84
2021/08/01 00:31:39;;;;;;;16.10;5.80;;;;;;;-145.71;100.00;60690.53;5011833;28;20207;-84
2021/08/01 00:34:04;;;;;;;11.13;5.45;;;;;;;-145.71;100.00;60690.53;5020900;28;20033;-83
2021/08/01 00:36:30;;;;;;;12.00;6.30;;;;;;;-145.71;100.00;60690.53;5018684;28;20040;-83
2021/08/01 00:38:55;;;;;;;13.98;5.93;;;;;;;-145.71;100.00;60690.53;5010572;28;20111;-84
2021/08/01 00:41:20;;;;;;;13.52;5.78;;;;;;;-145.71;100.00;60690.53;5015263;28;20028;-83
2021/08/01 00:43:46;;;;;;;9.38;5.38;;;;;;;-145.71;100.00;60690.53;5006423;28;20160;-84
2021/08/01 00:46:14;;;;;;;12.88;5.43;;;;;;;-145.71;100.00;60690.53;5012695;28;20509;-84
2021/08/01 00:48:39;;;;;;;9.13;5.22;;;;;;;-145.71;100.00;60690.53;5008359;28;20056;-83
2021/08/01 00:51:06;;;;;;;14.70;5.97;;;;;;;-145.71;100.00;60690.53;5014241;28;20474;-83
2021/08/01 00:53:31;;;;;;;18.50;5.65;;;;;;;-145.71;100.00;60690.53;4998287;28;20029;-83
2021/08/01 00:55:57;;;;;;;12.65;5.53;;;;;;;-145.71;100.00;60690.53;5030768;28;20029;-83
2021/08/01 00:58:22;;;;;;;14.27;6.00;;;;;;;-145.71;100.00;60690.53;5000417;28;20025;-83
2021/08/01 01:03:57;;;;;;;12.32;6.13;;;;;;;-145.71;100.00;60690.53;5002360;28;20095;-83
2021/08/01 01:06:54;;;;;;;20.55;5.55;;;;;;;-145.71;100.00;60690.53;5001052;28;20516;-83
2021/08/01 01:09:38;;;;;;;13.48;5.65;;;;;;;-145.71;100.00;60690.53;4996979;28;20129;-83
2021/08/01 01:12:07;;;;;;;10.13;5.93;;;;;;;-145.71;100.00;60690.53;5035891;28;20036;-83
2021/08/01 01:14:37;;;;;;;13.93;5.60;;;;;;;-145.71;100.00;60690.53;5019547;28;20380;-83
2021/08/01 01:17:05;;;;;;;11.93;5.50;;;;;;;-145.71;100.00;60690.53;5038541;28;20033;-83
2021/08/01 01:19:45;;;;;;;11.98;5.97;;;;;;;-145.71;100.00;60690.53;5039003;28;20260;-83
2021/08/01 01:22:27;;;;;;;11.32;5.82;;;;;;;-145.71;100.00;60690.53;5040903;28;20377;-84
2021/08/01 01:24:53;;;;;;;18.05;5.97;;;;;;;-145.71;100.00;60690.53;5042412;28;20033;-84
2021/08/01 01:27:31;;;;;;;12.35;5.70;;;;;;;-145.71;100.00;60690.53;5023394;28;20447;-83
2021/08/01 01:30:03;;;;;;;15.05;6.22;;;;;;;-145.71;100.00;60690.53;5023173;28;20120;-84
2021/08/01 01:32:51;;;;;;;11.65;4.90;;;;;;;-145.71;100.00;60690.53;5019605;28;20036;-83
2021/08/01 01:35:18;;;;;;;11.60;5.35;;;;;;;-145.71;100.00;60690.53;5022185;28;20036;-84
2021/08/01 01:37:49;;;;;;;13.10;4.88;;;;;;;-145.71;100.00;60690.53;5037750;28;20373;-83
2021/08/01 01:40:19;;;;;;;13.68;5.78;;;;;;;-145.71;100.00;60690.53;5019249;28;20090;-84
2021/08/01 01:42:47;;;;;;;14.45;4.53;;;;;;;-145.71;100.00;60690.53;5018411;28;20037;-83
2021/08/01 01:45:17;;;;;;;10.32;3.92;;;;;;;-145.71;100.00;60690.53;5036223;28;20029;-84
2021/08/01 01:47:46;;;;;;;13.32;5.15;;;;;;;-145.71;100.00;60690.53;5021440;28;20025;-83
2021/08/01 01:50:16;;;;;;;6.47;3.80;;;;;;;-145.71;100.00;60690.53;5040662;28;20034;-84
2021/08/01 01:52:42;;;;;;;10.68;3.90;;;;;;;-145.71;100.00;60690.53;5039076;28;20025;-84
2021/08/01 01:55:07;;;;;;;10.38;4.35;;;;;;;-145.71;100.00;60690.53;5020069;28;20132;-84
2021/08/01 01:57:33;;;;;;;9.00;4.97;;;;;;;-145.71;100.00;60690.53;5020426;28;20029;-83
2021/08/01 02:00:01;;;;;;;10.82;3.80;;;;;;;-145.71;100.00;60690.53;5037542;28;20389;-83
2021/08/01 02:02:26;;;;;;;9.80;3.88;;;;;;;-145.71;100.00;60690.53;5039960;28;20036;-83
2021/08/01 02:04:52;;;;;;;10.63;4.00;;;;;;;-145.71;100.00;60690.53;5037608;28;20029;-84
2021/08/01 02:07:20;;;;;;;17.67;4.20;;;;;;;-145.71;100.00;60690.53;5037588;28;20067;-83
2021/08/01 02:10:01;;;;;;;15.20;4.20;;;;;;;-145.71;100.00;60690.53;5037203;28;20032;-83
2021/08/01 02:12:33;;;;;;;12.60;4.40;;;;;;;-145.71;100.00;60690.53;5040502;28;20044;-84
2021/08/01 02:15:14;;;;;;;9.10;3.63;;;;;;;-145.71;100.00;60690.53;5022214;28;20034;-84
2021/08/01 02:18:06;;;;;;;8.63;3.70;;;;;;;-145.71;100.00;60690.53;5038810;28;20393;-84
2021/08/01 02:20:40;;;;;;;7.63;3.78;;;;;;;-145.71;100.00;60690.53;5037896;28;20021;-83
2021/08/01 02:23:07;;;;;;;11.65;4.10;;;;;;;-145.71;100.00;60690.53;5038070;28;20068;-84
2021/08/01 02:25:33;;;;;;;9.10;3.70;;;;;;;-145.71;100.00;60690.53;5018887;28;20358;-84
2021/08/01 02:28:00;;;;;;;8.70;4.00;;;;;;;-145.71;100.00;60690.53;5018128;28;20025;-83
2021/08/01 02:30:27;;;;;;;8.48;3.22;;;;;;;-145.71;100.00;60690.53;5021153;28;20033;-83
2021/08/01 02:32:56;;;;;;;13.43;4.00;;;;;;;-145.71;100.00;60690.53;5020274;28;20476;-83
2021/08/01 02:35:22;;;;;;;14.07;3.72;;;;;;;-145.71;100.00;60690.53;5037251;28;20056;-84
2021/08/01 02:37:50;;;;;;;9.55;3.10;;;;;;;-145.71;100.00;60690.53;5036358;28;20029;-84
2021/08/01 02:40:16;;;;;;;12.30;3.70;;;;;;;-145.71;100.00;60690.53;5021994;28;20021;-84
2021/08/01 02:42:45;;;;;;;12.73;3.63;;;;;;;-145.71;100.00;60690.53;5020298;28;20036;-84
2021/08/01 02:45:10;;;;;;;11.98;3.35;;;;;;;-145.71;100.00;60690.53;5036662;28;20033;-84
2021/08/01 02:47:39;;;;;;;10.10;2.92;;;;;;;-145.71;100.00;60690.53;5036963;28;20766;-84
2021/08/01 02:50:07;;;;;;;12.02;2.80;;;;;;;-145.71;100.00;60690.53;5036527;28;20136;-84
2021/08/01 02:52:47;;;;;;;7.13;2.88;;;;;;;-145.71;100.00;60690.53;5035376;28;20037;-84
2021/08/01 02:55:15;;;;;;;14.07;3.20;;;;;;;-145.71;100.00;60690.53;5038404;28;20029;-84
2021/08/01 02:57:46;;;;;;;12.25;3.28;;;;;;;-145.71;100.00;60690.53;5018249;28;20134;-83
2021/08/01 03:00:12;;;;;;;12.65;3.03;;;;;;;-145.71;100.00;60690.53;5034570;28;20164;-84
2021/08/01 03:02:38;;;;;;;11.63;2.90;;;;;;;-145.71;100.00;60690.53;5015618;28;20114;-83
2021/08/01 03:05:05;;;;;;;7.43;2.35;;;;;;;-145.71;100.00;60690.53;5036760;28;20025;-83
2021/08/01 03:07:30;;;;;;;12.52;2.58;;;;;;;-145.71;100.00;60690.53;5020494;28;20034;-83
2021/08/01 03:09:56;;;;;;;10.13;2.45;;;;;;;-145.71;100.00;60690.53;5038284;28;20025;-83
2021/08/01 03:12:21;;;;;;;8.35;2.33;;;;;;;-145.71;100.00;60690.53;5036449;28;20025;-84
2021/08/01 03:14:47;;;;;;;12.13;2.88;;;;;;;-145.71;100.00;60690.53;5018640;28;20025;-83
2021/08/01 03:17:12;;;;;;;10.35;2.05;;;;;;;-145.71;100.00;60690.53;5017947;28;20040;-83
2021/08/01 03:19:41;;;;;;;6.53;2.45;;;;;;;-145.71;100.00;60690.53;5037054;28;20037;-84
2021/08/01 03:22:07;;;;;;;17.27;2.60;;;;;;;-145.71;100.00;60690.53;5035603;28;20104;-83
2021/08/01 03:24:33;;;;;;;6.28;2.10;;;;;;;-145.71;100.00;60690.53;5036869;28;20499;-84
2021/08/01 03:26:58;;;;;;;9.10;2.63;;;;;;;-145.71;100.00;60690.53;5015744;28;20116;-83
2021/08/01 03:29:24;;;;;;;6.82;2.78;;;;;;;-145.71;100.00;60690.53;5033787;28;20553;-83
2021/08/01 03:31:49;;;;;;;5.75;1.95;;;;;;;-145.71;100.00;60690.53;5039036;28;20136;-84
2021/08/01 03:34:15;;;;;;;12.20;2.28;;;;;;;-145.71;100.00;60690.53;5019998;28;20021;-84
2021/08/01 03:36:40;;;;;;;7.57;2.00;;;;;;;-145.71;100.00;60690.53;5037480;28;20079;-83
2021/08/01 03:39:06;;;;;;;8.63;1.90;;;;;;;-145.71;100.00;60690.53;5037935;28;20048;-83
2021/08/01 03:41:31;;;;;;;10.13;1.85;;;;;;;-145.71;100.00;60690.53;5021913;28;20120;-83
2021/08/01 03:43:57;;;;;;;4.15;1.95;;;;;;;-145.71;100.00;60690.53;5039514;28;20091;-83
2021/08/01 03:46:22;;;;;;;8.13;1.88;;;;;;;-145.71;100.00;60690.53;5022364;28;20033;-84
2021/08/01 03:48:48;;;;;;;7.45;1.55;;;;;;;-145.71;100.00;60690.53;5041697;28;20080;-84
2021/08/01 03:51:13;;;;;;;5.55;1.88;;;;;;;-145.71;100.00;60690.53;5039579;28;20048;-83
2021/08/01 03:53:38;;;;;;;9.18;2.05;;;;;;;-145.71;100.00;60690.53;5019995;28;20033;-84
2021/08/01 03:56:04;;;;;;;7.45;2.60;;;;;;;-145.71;100.00;60690.53;5022134;28;20054;-84
2021/08/01 03:58:30;;;;;;;7.25;1.77;;;;;;;-145.71;100.00;60690.53;5042192;28;20108;-84
2021/08/01 04:00:55;;;;;;;10.23;2.20;;;;;;;-145.71;100.00;60690.53;5023725;28;20033;-84
2021/08/01 04:03:21;;;;;;;6.00;1.98;;;;;;;-145.71;100.00;60690.53;5041762;28;20033;-84
2021/08/01 04:05:46;;;;;;;5.55;2.00;;;;;;;-145.71;100.00;60690.53;5040110;28;20030;-83
2021/08/01 04:08:12;;;;;;;8.93;2.17;;;;;;;-145.71;100.00;60690.53;5021788;28;20499;-83
2021/08/01 04:10:37;;;;;;;5.38;1.77;;;;;;;-145.71;100.00;60690.53;5020704;28;20036;-83
2021/08/01 04:13:03;;;;;;;8.30;1.85;;;;;;;-145.71;100.00;60690.53;5037803;28;20025;-83
2021/08/01 04:15:29;;;;;;;8.73;2.75;;;;;;;-145.71;100.00;60690.53;5040082;28;20021;-83
2021/08/01 04:17:54;;;;;;;14.63;2.40;;;;;;;-145.71;100.00;60690.53;5036882;28;20036;-83
2021/08/01 04:20:19;;;;;;;9.82;2.75;;;;;;;-145.71;100.00;60690.53;5038335;28;20025;-83
2021/08/01 04:22:44;;;;;;;8.10;1.65;;;;;;;-145.71;100.00;60690.53;5021150;28;20049;-83
2021/08/01 04:25:10;;;;;;;6.93;2.35;;;;;;;-145.71;100.00;60690.53;5021891;28;20025;-83
2021/08/01 04:27:36;;;;;;;5.28;2.20;;;;;;;-145.71;100.00;60690.53;5041988;28;20085;-84
2021/08/01 04:30:03;;;;;;;10.27;2.10;;;;;;;-145.71;100.00;60690.53;5020690;28;20108;-84
2021/08/01 04:32:28;;;;;;;7.75;1.80;;;;;;;-145.71;100.00;60690.53;5022312;28;20056;-84
2021/08/01 04:34:53;;;;;;;6.22;2.15;;;;;;;-145.71;100.00;60690.53;5021829;28;20026;-84
2021/08/01 04:37:19;;;;;;;10.50;1.98;;;;;;;-145.71;100.00;60690.53;5039970;28;20026;-84
2021/08/01 04:39:44;;;;;;;7.35;2.08;;;;;;;-145.71;100.00;60690.53;5019710;28;20108;-83
2021/08/01 04:42:09;;;;;;;10.73;2.30;;;;;;;-145.71;100.00;60690.53;5020240;28;20037;-84
2021/08/01 04:44:35;;;;;;;7.50;1.77;;;;;;;-145.71;100.00;60690.53;5022180;28;20033;-84
2021/08/01 04:47:00;;;;;;;10.32;2.10;;;;;;;-145.71;100.00;60690.53;5036353;28;20021;-83
2021/08/01 04:49:25;;;;;;;8.82;2.58;;;;;;;-145.71;100.00;60690.53;5037802;28;20029;-84
2021/08/01 04:51:51;;;;;;;7.32;2.08;;;;;;;-145.71;100.00;60690.53;5018233;28;20033;-83
2021/08/01 04:54:16;;;;;;;11.90;2.30;;;;;;;-145.71;100.00;60690.53;5019968;28;20041;-83
2021/08/01 04:56:45;;;;;;;6.20;1.88;;;;;;;-145.71;100.00;60690.53;5039345;28;20022;-84
2021/08/01 04:59:11;;;;;;;10.30;2.25;;;;;;;-145.71;100.00;60690.53;5022563;28;20033;-84
2021/08/01 05:01:37;;;;;;;7.38;1.95;;;;;;;-145.71;100.00;60690.53;5039411;28;20039;-84
2021/08/01 05:04:03;;;;;;;7.68;2.00;;;;;;;-145.71;100.00;60690.53;5021262;28;20112;-83
2021/08/01 05:06:28;;;;;;;8.30;2.15;;;;;;;-145.71;100.00;60690.53;5037185;28;20064;-83
2021/08/01 05:08:53;;;;;;;8.35;2.40;;;;;;;-145.71;100.00;60690.53;5038281;28;20025;-83
2021/08/01 05:11:18;;;;;;;11.45;2.47;;;;;;;-145.71;100.00;60690.53;5021669;28;20118;-84
2021/08/01 05:13:44;;;;;;;6.88;2.85;;;;;;;-145.71;100.00;60690.53;5018693;28;20037;-83
2021/08/01 05:16:15;;;;;;;7.38;2.03;;;;;;;-145.71;100.00;60690.53;5019789;28;20028;-83
2021/08/01 05:18:40;;;;;;;10.02;2.92;;;;;;;-145.71;100.00;60690.53;5037640;28;20056;-83
2021/08/01 05:21:05;;;;;;;8.80;1.90;;;;;;;-145.71;100.00;60690.53;5020495;28;20033;-83
2021/08/01 05:23:31;;;;;;;6.57;2.20;;;;;;;-145.71;100.00;60690.53;5021052;28;20852;-84
2021/08/01 05:25:57;;;;;;;8.43;2.22;;;;;;;-145.71;100.00;60690.53;5006381;28;20580;-84
2021/08/01 05:28:23;;;;;;;7.65;2.00;;;;;;;-145.71;100.00;60690.53;5006080;28;20065;-84
2021/08/01 05:30:48;;;;;;;7.22;2.60;;;;;;;-145.71;100.00;60690.53;5039977;28;20037;-83
2021/08/01 05:33:13;;;;;;;5.45;2.03;;;;;;;-145.71;100.00;60690.53;5037970;28;20079;-84
2021/08/01 05:35:39;;;;;;;8.85;2.60;;;;;;;-145.71;100.00;60690.53;5038362;28;20029;-83
2021/08/01 05:38:05;;;;;;;6.78;1.95;;;;;;;-145.71;100.00;60690.53;5037278;28;20412;-83
2021/08/01 05:40:30;;;;;;;7.25;2.08;;;;;;;-145.71;100.00;60690.53;5020734;28;20227;-84
2021/08/01 05:42:56;;;;;;;7.70;1.65;;;;;;;-145.71;100.00;60690.53;5037106;28;20032;-83
2021/08/01 05:45:21;;;;;;;8.38;2.30;;;;;;;-145.71;100.00;60690.53;5023192;28;20028;-84
2021/08/01 05:47:46;;;;;;;11.25;2.53;;;;;;;-145.71;100.00;60690.53;5039913;28;20029;-84
2021/08/01 05:50:12;;;;;;;4.13;2.10;;;;;;;-145.71;100.00;60690.53;5021708;28;20025;-84
2021/08/01 05:52:37;;;;;;;10.25;2.42;;;;;;;-145.71;100.00;60690.53;5037176;28;20051;-84
2021/08/01 05:55:03;;;;;;;7.03;1.98;;;;;;;-145.71;100.00;60690.53;5040039;28;20029;-84
2021/08/01 05:57:28;;;;;;;8.65;2.00;;;;;;;-145.71;100.00;60690.53;5038035;28;20049;-84
2021/08/01 05:59:54;;;;;;;9.80;2.17;;;;;;;-145.71;100.00;60690.53;5019733;28;20040;-84
2021/08/01 06:02:19;;;;;;;4.80;1.90;;;;;;;-145.71;100.00;60690.53;5018188;28;20095;-84
2021/08/01 06:04:44;;;;;;;9.05;2.22;;;;;;;-145.71;100.00;60690.53;5020059;28;20036;-84
2021/08/01 06:07:10;;;;;;;4.97;1.83;;;;;;;-145.71;100.00;60690.53;5022001;28;20067;-84
2021/08/01 06:09:39;;;;;;;11.23;2.20;;;;;;;-145.71;100.00;60690.53;5039897;28;20025;-84
2021/08/01 06:12:05;;;;;;;12.73;2.47;;;;;;;-145.71;100.00;60690.53;5019721;28;20025;-84
2021/08/01 06:14:31;;;;;;;12.60;2.53;;;;;;;-145.71;100.00;60690.53;5037632;28;20029;-83
2021/08/01 06:16:56;;;;;;;8.45;2.08;;;;;;;-145.71;100.00;60690.53;5037647;28;20060;-83
2021/08/01 06:19:21;;;;;;;7.35;2.42;;;;;;;-145.71;100.00;60690.53;5020595;28;20025;-84
2021/08/01 06:21:47;;;;;;;7.47;2.58;;;;;;;-145.71;100.00;60690.53;5020568;28;20119;-83
2021/08/01 06:24:12;;;;;;;10.93;2.72;;;;;;;-145.71;100.00;60690.53;5018231;28;20058;-83
2021/08/01 06:26:38;;;;;;;9.07;2.80;;;;;;;-145.71;100.00;60690.53;5018818;28;20041;-83
2021/08/01 06:29:03;;;;;;;7.75;2.00;;;;;;;-145.71;100.00;60690.53;5016612;28;20021;-84
2021/08/01 06:31:30;;;;;;;6.75;2.13;;;;;;;-145.71;100.00;60690.53;5040025;28;20038;-84
2021/08/01 06:33:58;;;;;;;6.32;2.13;;;;;;;-145.71;100.00;60690.53;5023101;28;20029;-84
2021/08/01 06:36:23;;;;;;;9.05;2.35;;;;;;;-145.71;100.00;60690.53;5039163;28;20025;-84
2021/08/01 06:38:49;;;;;;;6.57;1.88;;;;;;;-145.71;100.00;60690.53;5037191;28;20047;-84
2021/08/01 06:41:14;;;;;;;12.90;2.53;;;;;;;-145.71;100.00;60690.53;5038173;28;20483;-84
2021/08/01 06:43:39;;;;;;;15.25;2.95;;;;;;;-145.71;100.00;60690.53;5020493;28;20034;-83
2021/08/01 06:46:05;;;;;;;7.50;1.85;;;;;;;-145.71;100.00;60690.53;5038130;28;20769;-84
2021/08/01 06:48:31;;;;;;;8.43;2.13;;;;;;;-145.71;100.00;60690.53;5020915;28;20475;-84
2021/08/01 06:50:56;;;;;;;7.40;2.35;;;;;;;-145.71;100.00;60690.53;5038589;28;20029;-83
2021/08/01 06:53:21;;;;;;;8.60;2.10;;;;;;;-145.71;100.00;60690.53;5035800;28;20022;-83
2021/08/01 06:55:47;;;;;;;7.90;1.85;;;;;;;-145.71;100.00;60690.53;5035351;28;20033;-83
2021/08/01 06:58:18;;;;;;;5.45;2.13;;;;;;;-145.71;100.00;60690.53;5019724;28;20032;-84
2021/08/01 07:00:53;;;;;;;7.13;2.30;;;;;;;-145.71;100.00;60690.53;5020498;28;20745;-84
2021/08/01 07:03:19;;;;;;;6.55;2.28;;;;;;;-145.71;100.00;60690.53;5039170;28;20052;-84
2021/08/01 07:05:45;;;;;;;9.57;2.42;;;;;;;-145.71;100.00;60690.53;5038191;28;20025;-84
2021/08/01 07:08:10;;;;;;;9.15;2.58;;;;;;;-145.71;100.00;60690.53;5020444;28;20029;-84
2021/08/01 07:10:36;;;;;;;8.43;2.20;;;;;;;-145.71;100.00;60690.53;5017495;28;20432;-84
2021/08/01 07:13:03;;;;;;;9.32;3.00;;;;;;;-145.71;100.00;60690.53;5036384;28;20029;-84
2021/08/01 07:15:29;;;;;;;8.50;2.30;;;;;;;-145.71;100.00;60690.53;5018265;28;20033;-83
2021/08/01 07:17:56;;;;;;;9.43;2.55;;;;;;;-145.71;100.00;60690.53;5017758;28;20048;-84
2021/08/01 07:20:22;;;;;;;6.60;2.08;;;;;;;-145.71;100.00;60690.53;5008079;28;20026;-84
2021/08/01 07:22:48;;;;;;;6.80;2.67;;;;;;;-145.71;100.00;60690.53;5011419;28;20437;-83
2021/08/01 07:25:13;;;;;;;6.13;2.40;;;;;;;-145.71;100.00;60690.53;5016823;28;20056;-84
2021/08/01 07:27:39;;;;;;;9.65;3.35;;;;;;;-145.71;100.00;60690.53;5008158;28;20026;-83
2021/08/01 07:30:05;;;;;;;5.15;2.17;;;;;;;-145.71;100.00;60690.53;5001718;28;20033;-83
2021/08/01 07:32:30;;;;;;;10.80;2.42;;;;;;;-145.71;100.00;60690.53;5006388;28;20045;-84
2021/08/01 07:34:56;;;;;;;8.18;2.33;;;;;;;-145.71;100.00;60690.53;5013207;28;20038;-84
2021/08/01 07:37:21;;;;;;;5.15;1.95;;;;;;;-145.71;100.00;60690.53;5013625;28;20691;-83
2021/08/01 07:39:47;;;;;;;4.18;2.13;;;;;;;-145.71;100.00;60690.53;5005437;28;20029;-84
2021/08/01 07:42:12;;;;;;;7.65;2.55;;;;;;;-145.71;100.00;60690.53;5000289;28;20056;-83
2021/08/01 07:47:18;;;;;;;10.52;2.67;;;;;;;-145.71;100.00;60690.53;4985510;28;20105;-84
2021/08/01 07:49:45;;;;;;;7.40;2.33;;;;;;;-145.71;100.00;60690.53;5004967;28;20041;-83
2021/08/01 07:52:11;;;;;;;9.00;2.67;;;;;;;-145.71;100.00;60690.53;5008109;28;20405;-84
2021/08/01 07:54:36;;;;;;;6.50;1.88;;;;;;;-145.71;100.00;60690.53;4996513;28;20053;-83
2021/08/01 07:57:02;;;;;;;6.90;2.38;;;;;;;-145.71;100.00;60690.53;4992168;28;20088;-84
2021/08/01 07:59:27;;;;;;;6.20;2.13;;;;;;;-145.71;100.00;60690.53;4995183;28;20397;-83
2021/08/01 08:01:52;;;;;;;8.55;2.38;;;;;;;-145.71;100.00;60690.53;5003339;28;20108;-84
2021/08/01 08:04:17;;;;;;;5.07;1.88;;;;;;;-145.71;100.00;60690.53;5001525;28;20072;-84
2021/08/01 08:06:43;;;;;;;3.55;1.75;;;;;;;-145.71;100.00;60690.53;5001531;28;20501;-83
2021/08/01 08:09:08;;;;;;;5.72;1.75;;;;;;;-145.71;100.00;60690.53;5012758;28;20026;-84
2021/08/01 08:11:33;;;;;;;6.35;1.83;;;;;;;-145.71;100.00;60690.53;5005220;28;20085;-84
2021/08/01 08:13:59;;;;;;;2.67;1.52;;;;;;;-145.71;100.00;60690.53;5003040;28;20030;-84
2021/08/01 08:16:24;;;;;;;5.28;1.75;;;;;;;-145.71;100.00;60690.53;4991656;28;20035;-84
2021/08/01 08:18:50;;;;;;;4.22;1.88;;;;;;;-145.71;100.00;60690.53;5011523;28;20034;-83
2021/08/01 08:21:16;;;;;;;5.35;2.25;;;;;;;-145.71;100.00;60690.53;5007538;28;20095;-83
2021/08/01 08:23:41;;;;;;;3.72;1.67;;;;;;;-145.71;100.00;60690.53;5027230;28;20065;-83
2021/08/01 08:26:07;;;;;;;6.03;1.70;;;;;;;-145.71;100.00;60690.53;5016646;28;20026;-84
2021/08/01 08:28:32;;;;;;;7.00;2.10;;;;;;;-145.71;100.00;60690.53;5020576;28;20033;-83
2021/08/01 08:30:59;;;;;;;4.10;1.60;;;;;;;-145.71;100.00;60690.53;5019619;28;20049;-83
2021/08/01 08:33:24;;;;;;;4.82;1.63;;;;;;;-145.71;100.00;60690.53;5021054;28;20026;-83
2021/08/01 08:35:50;;;;;;;5.35;2.03;;;;;;;-145.71;100.00;60690.53;5028681;28;20038;-84
2021/08/01 08:38:15;;;;;;;4.28;1.63;;;;;;;-145.71;100.00;60690.53;5033819;28;20029;-84
2021/08/01 08:40:40;;;;;;;3.90;1.20;;;;;;;-145.71;100.00;60690.53;5005859;28;20586;-84
2021/08/01 08:43:07;;;;;;;7.30;1.90;;;;;;;-145.71;100.00;60690.53;5022957;28;20032;-84
2021/08/01 08:45:33;;;;;;;8.65;1.77;;;;;;;-145.71;100.00;60690.53;5017402;28;20049;-83
2021/08/01 08:47:59;;;;;;;4.00;1.65;;;;;;;-145.71;100.00;60690.53;5026846;28;20041;-83
2021/08/01 08:50:24;;;;;;;4.40;1.63;;;;;;;-145.71;100.00;60690.53;5019885;28;20089;-84
2021/08/01 08:53:01;;;;;;;5.15;1.65;;;;;;;-145.71;100.00;60690.53;5026971;28;20524;-84
2021/08/01 08:55:31;;;;;;;4.60;1.50;;;;;;;-145.71;100.00;60690.53;5001952;28;20465;-86
2021/08/01 08:58:02;;;;;;;4.63;1.80;;;;;;;-145.71;100.00;60690.53;5025356;28;20475;-83
2021/08/01 09:00:28;;;;;;;5.15;2.13;;;;;;;-145.71;100.00;60690.53;5025165;28;20021;-83
2021/08/01 09:02:54;;;;;;;5.85;2.08;;;;;;;-145.71;100.00;60690.53;4999307;28;20450;-83
2021/08/01 09:05:20;;;;;;;6.38;1.77;;;;;;;-145.71;100.00;60690.53;5034388;28;20127;-83
2021/08/01 09:07:45;;;;;;;7.75;1.92;;;;;;;-145.71;100.00;60690.53;5001080;28;20034;-83
2021/08/01 09:10:11;;;;;;;3.65;1.60;;;;;;;-145.71;100.00;60690.53;5017790;28;20037;-84
2021/08/01 09:12:43;;;;;;;7.57;2.00;;;;;;;-145.71;100.00;60690.53;5002207;28;20393;-83
2021/08/01 09:15:10;;;;;;;6.63;2.75;;;;;;;-145.71;100.00;60690.53;5018127;28;20029;-84
2021/08/01 09:17:37;;;;;;;5.88;2.10;;;;;;;-145.71;100.00;60690.53;5032543;28;20080;-83
2021/08/01 09:20:24;;;;;;;7.68;1.90;;;;;;;-145.71;100.00;60690.53;5017566;28;20053;-84
2021/08/01 09:23:10;;;;;;;7.03;1.95;;;;;;;-145.71;100.00;60690.53;5027397;28;20146;-84
2021/08/01 09:25:44;;;;;;;7.30;1.60;;;;;;;-145.71;100.00;60690.53;5013464;28;20026;-83
2021/08/01 09:28:12;;;;;;;3.63;1.63;;;;;;;-145.71;100.00;60690.53;5020577;28;20037;-83
2021/08/01 09:30:55;;;;;;;10.65;2.00;;;;;;;-145.71;100.00;60690.53;5002286;28;20037;-83
2021/08/01 09:33:39;;;;;;;4.80;1.45;;;;;;;-145.71;100.00;60690.53;5019513;28;20038;-84
2021/08/01 09:36:06;;;;;;;5.30;1.45;;;;;;;-145.71;100.00;60690.53;5025921;28;20412;-83
2021/08/01 09:39:02;;;;;;;4.25;1.92;;;;;;;-145.71;100.00;60690.53;5023273;28;20127;-83
2021/08/01 09:41:33;;;;;;;5.88;1.60;;;;;;;-145.71;100.00;60690.53;4967514;28;20038;-83
2021/08/01 09:44:10;;;;;;;5.68;1.70;;;;;;;-145.71;100.00;60690.53;4995459;28;20045;-83
2021/08/01 09:46:46;;;;;;;6.18;1.75;;;;;;;-145.71;100.00;60690.53;4996501;28;20064;-83
2021/08/01 09:49:12;;;;;;;4.13;1.40;;;;;;;-145.71;100.00;60690.53;5018258;28;20112;-84
2021/08/01 09:51:43;;;;;;;6.82;1.60;;;;;;;-145.71;100.00;60690.53;5022553;28;20434;-83
2021/08/01 09:54:10;;;;;;;7.67;1.93;;;;;;;-145.71;100.00;60690.53;5040894;28;20036;-83
2021/08/01 09:56:37;;;;;;;5.13;1.60;;;;;;;-145.71;100.00;60690.53;5025762;28;20272;-83
2021/08/01 09:59:02;;;;;;;6.15;1.50;;;;;;;-145.71;100.00;60690.53;5015172;28;20021;-83
2021/08/01 10:01:28;;;;;;;3.80;1.20;;;;;;;-145.71;100.00;60690.53;5032033;28;20024;-83
2021/08/01 10:03:54;;;;;;;6.55;1.58;;;;;;;-145.71;100.00;60690.53;5007296;28;20028;-83
2021/08/01 10:06:21;;;;;;;4.32;1.75;;;;;;;-145.71;100.00;60690.53;5007299;28;20090;-83
2021/08/01 10:08:48;;;;;;;6.68;1.60;;;;;;;-145.71;100.00;60690.53;5032870;28;20025;-83
2021/08/01 10:11:24;;;;;;;6.57;1.45;;;;;;;-145.71;100.00;60690.53;5033963;28;20021;-83
2021/08/01 10:13:54;;;;;;;7.15;1.30;;;;;;;-145.71;100.00;60690.53;5007420;28;20493;-83
2021/08/01 10:16:21;;;;;;;6.82;1.58;;;;;;;-145.71;100.00;60690.53;5037960;28;20036;-82
2021/08/01 10:18:48;;;;;;;3.95;1.30;;;;;;;-145.71;100.00;60690.53;5041516;28;20041;-83
2021/08/01 10:21:22;;;;;;;4.35;1.70;;;;;;;-145.71;100.00;60690.53;5017864;28;20022;-83
2021/08/01 10:23:58;;;;;;;7.00;1.60;;;;;;;-145.71;100.00;60690.53;5001347;28;20046;-84
2021/08/01 10:26:47;;;;;;;2.90;1.20;;;;;;;-145.71;100.00;60690.53;5004987;28;20048;-84
2021/08/01 10:29:17;;;;;;;4.80;2.28;;;;;;;-145.71;100.00;60690.53;5016239;28;20026;-84
2021/08/01 10:31:54;;;;;;;3.67;1.60;;;;;;;-145.71;100.00;60690.53;5014859;28;20036;-83
2021/08/01 10:34:37;;;;;;;4.25;1.60;;;;;;;-145.71;100.00;60690.53;5003447;28;20034;-83
2021/08/01 10:37:06;;;;;;;5.28;1.20;;;;;;;-145.71;100.00;60690.53;5011795;28;20065;-83
2021/08/01 10:39:36;;;;;;;3.40;1.55;;;;;;;-145.71;100.00;60690.53;5009939;28;20034;-83
2021/08/01 10:42:07;;;;;;;12.93;1.73;;;;;;;-145.71;100.00;60690.53;5001236;28;20440;-83
2021/08/01 10:44:34;;;;;;;;;;;;;;;-145.71;100.00;60690.53;4999251;28;20441;-83
2021/08/01 10:47:00;;;;;;;3.03;1.25;;;;;;;-145.71;100.00;60690.53;4998221;28;20004;-84
2021/08/01 10:49:26;;;;;;;4.20;1.95;;;;;;;-145.71;100.00;60690.53;5011870;28;20053;-83
2021/08/01 10:51:52;;;;;;;3.13;1.30;;;;;;;-145.71;100.00;60690.53;4997088;28;20057;-83
2021/08/01 10:54:20;;;;;;;4.45;1.58;;;;;;;-145.71;100.00;60690.53;4997397;28;20027;-83
2021/08/01 10:57:18;;;;;;;3.33;1.38;;;;;;;-145.71;100.00;60690.53;5008204;28;20041;-83
2021/08/01 10:59:44;;;;;;;2.75;1.48;;;;;;;-145.71;100.00;60690.53;4987091;28;20048;-84
2021/08/01 11:02:17;;;;;;;2.90;1.20;;;;;;;-145.71;100.00;60690.53;5005858;28;20026;-83
2021/08/01 11:04:45;;;;;;;4.45;1.52;;;;;;;-145.71;100.00;60690.53;5008825;28;20030;-83
2021/08/01 11:07:11;;;;;;;4.55;1.40;;;;;;;-145.71;100.00;60690.53;5011979;28;20464;-83
2021/08/01 11:09:37;;;;;;;4.95;1.85;;;;;;;-145.71;100.00;60690.53;5007721;28;20075;-83
2021/08/01 11:12:20;;;;;;;4.40;1.58;;;;;;;-145.71;100.00;60690.53;4996276;28;20030;-84
2021/08/01 11:14:53;;;;;;;2.45;1.42;;;;;;;-145.71;100.00;60690.53;5011129;28;20049;-84